createdAt,value
2022-10-07T00:03:48.022Z,42.41
2022-10-07T00:08:55.251Z,42.51
2022-10-07T00:14:02.550Z,42.46
2022-10-07T00:19:09.728Z,42.47
2022-10-07T00:24:17.042Z,42.47
2022-10-07T00:29:24.324Z,42.48
2022-10-07T00:34:31.609Z,42.51
2022-10-07T00:39:38.813Z,42.55
2022-10-07T00:44:46.066Z,42.52
2022-10-07T00:49:53.226Z,42.50
2022-10-07T00:55:00.431Z,42.45
2022-10-07T01:00:07.923Z,42.45
2022-10-07T01:05:15.081Z,42.58
2022-10-07T01:10:22.262Z,42.62
2022-10-07T01:15:29.484Z,42.55
2022-10-07T01:20:36.663Z,42.54
2022-10-07T01:25:43.834Z,42.46
2022-10-07T01:30:51.110Z,42.38
2022-10-07T01:35:58.275Z,42.34
2022-10-07T01:41:05.410Z,42.29
2022-10-07T01:46:12.955Z,42.23
2022-10-07T01:51:20.102Z,42.16
2022-10-07T01:56:27.305Z,42.09
2022-10-07T02:01:34.660Z,42.09
2022-10-07T02:06:41.816Z,42.02
2022-10-07T02:11:49.019Z,42.00
2022-10-07T02:16:56.259Z,42.02
2022-10-07T02:22:03.402Z,42.02
2022-10-07T02:27:10.625Z,41.98
2022-10-07T02:32:17.860Z,41.95
2022-10-07T02:37:25.000Z,41.92
2022-10-07T02:42:32.246Z,41.86
2022-10-07T02:47:39.493Z,41.83
2022-10-07T02:52:46.670Z,41.80
2022-10-07T02:57:53.877Z,41.71
2022-10-07T03:03:01.158Z,41.75
2022-10-07T03:08:08.291Z,41.72
2022-10-07T03:13:15.542Z,41.67
2022-10-07T03:18:22.719Z,41.70
2022-10-07T03:23:29.956Z,41.71
2022-10-07T03:28:37.289Z,41.71
2022-10-07T03:33:44.500Z,41.63
2022-10-07T03:38:51.721Z,41.60
2022-10-07T03:43:58.926Z,41.56
2022-10-07T03:49:06.165Z,41.48
2022-10-07T03:54:13.373Z,41.47
2022-10-07T03:59:20.557Z,41.46
2022-10-07T04:04:27.860Z,41.38
2022-10-07T04:09:35.083Z,41.37
2022-10-07T04:14:42.236Z,41.31
2022-10-07T04:19:49.471Z,41.32
2022-10-07T04:24:56.748Z,41.27
2022-10-07T04:30:04.024Z,41.27
2022-10-07T04:35:11.198Z,41.21
2022-10-07T04:40:18.675Z,41.21
2022-10-07T04:45:25.871Z,41.16
2022-10-07T04:50:33.115Z,41.35
2022-10-07T04:55:40.246Z,41.70
2022-10-07T05:00:47.644Z,41.52
2022-10-07T05:05:54.741Z,41.45
2022-10-07T05:11:01.914Z,41.31
2022-10-07T05:16:09.186Z,41.14
2022-10-07T05:21:16.355Z,40.90
2022-10-07T05:26:23.481Z,40.75
2022-10-07T05:31:30.819Z,40.63
2022-10-07T05:36:37.960Z,40.43
2022-10-07T05:41:46.091Z,40.34
2022-10-07T05:46:52.855Z,40.27
2022-10-07T05:52:00.195Z,40.24
2022-10-07T05:57:07.367Z,39.99
2022-10-07T06:02:14.983Z,39.94
2022-10-07T06:07:24.513Z,39.90
2022-10-07T06:12:29.398Z,39.92
2022-10-07T06:17:36.634Z,39.81
2022-10-07T06:22:43.936Z,39.84
2022-10-07T06:27:54.134Z,39.80
2022-10-07T06:32:58.530Z,39.79
2022-10-07T06:38:05.789Z,39.71
2022-10-07T06:43:13.233Z,39.64
2022-10-07T06:48:20.495Z,39.53
2022-10-07T06:53:27.830Z,39.66
2022-10-07T06:58:34.993Z,39.69
2022-10-07T07:03:42.204Z,39.71
2022-10-07T07:08:49.502Z,39.90
2022-10-07T07:13:56.749Z,39.73
2022-10-07T07:19:03.934Z,39.83
2022-10-07T07:24:11.191Z,39.80
2022-10-07T07:29:18.366Z,39.83
2022-10-07T07:34:25.598Z,39.67
2022-10-07T07:39:32.822Z,39.85
2022-10-07T07:44:40.273Z,39.84
2022-10-07T07:49:47.503Z,39.77
2022-10-07T07:54:54.816Z,40.01
2022-10-07T08:00:02.078Z,40.06
2022-10-07T08:05:09.360Z,39.98
2022-10-07T08:10:16.593Z,39.68
2022-10-07T08:15:23.806Z,39.65
2022-10-07T08:20:31.055Z,39.73
2022-10-07T08:25:38.261Z,39.87
2022-10-07T08:30:45.594Z,40.21
2022-10-07T08:35:52.748Z,40.14
2022-10-07T08:40:59.990Z,40.17
2022-10-07T08:46:07.221Z,40.06
2022-10-07T08:51:14.423Z,39.95
2022-10-07T08:56:21.695Z,39.98
2022-10-07T09:01:28.987Z,39.92
2022-10-07T09:06:36.114Z,40.08
2022-10-07T09:11:43.344Z,40.29
2022-10-07T09:16:50.649Z,40.23
2022-10-07T09:21:57.866Z,40.04
2022-10-07T09:27:05.073Z,40.08
2022-10-07T09:32:12.271Z,39.92
2022-10-07T09:37:19.488Z,40.11
2022-10-07T09:42:26.786Z,40.21
2022-10-07T09:47:33.942Z,39.98
2022-10-07T09:52:41.198Z,40.05
2022-10-07T09:57:48.665Z,40.15
2022-10-07T10:02:55.738Z,40.14
2022-10-07T10:08:02.912Z,40.10
2022-10-07T10:13:10.126Z,39.91
2022-10-07T10:18:17.493Z,39.92
2022-10-07T10:23:24.770Z,39.99
2022-10-07T10:28:32.123Z,39.92
2022-10-07T10:33:39.212Z,39.89
2022-10-07T10:38:46.397Z,39.87
2022-10-07T10:43:53.634Z,39.92
2022-10-07T10:49:01.064Z,39.94
2022-10-07T10:54:08.318Z,39.96
2022-10-07T10:59:15.543Z,39.97
2022-10-07T11:04:22.714Z,40.07
2022-10-07T11:09:30.733Z,39.96
2022-10-07T11:14:37.205Z,40.10
2022-10-07T11:19:44.384Z,40.02
2022-10-07T11:24:51.547Z,40.10
2022-10-07T11:29:58.742Z,40.00
2022-10-07T11:35:05.877Z,40.26
2022-10-07T11:40:13.109Z,40.31
2022-10-07T11:45:20.334Z,40.36
2022-10-07T11:50:27.557Z,40.40
2022-10-07T11:55:34.759Z,40.68
2022-10-07T12:00:42.063Z,40.78
2022-10-07T12:05:49.279Z,40.91
2022-10-07T12:10:56.494Z,40.92
2022-10-07T12:16:03.848Z,40.63
2022-10-07T12:21:10.889Z,40.87
2022-10-07T12:26:18.087Z,40.78
2022-10-07T12:31:25.316Z,41.75
2022-10-07T12:36:32.419Z,42.11
2022-10-07T12:41:40.425Z,42.50
2022-10-07T12:46:46.806Z,42.63
2022-10-07T12:51:54.013Z,42.53
2022-10-07T12:57:01.285Z,42.55
2022-10-07T13:02:08.633Z,42.70
2022-10-07T13:07:15.637Z,42.78
2022-10-07T13:12:22.830Z,43.14
2022-10-07T13:17:30.053Z,43.06
2022-10-07T13:22:37.238Z,43.23
2022-10-07T13:27:44.402Z,43.33
2022-10-07T13:32:51.647Z,43.62
2022-10-07T13:37:58.856Z,43.61
2022-10-07T13:43:06.056Z,43.98
2022-10-07T13:48:13.294Z,44.10
2022-10-07T13:53:20.478Z,44.27
2022-10-07T13:58:27.674Z,44.24
2022-10-07T14:03:34.869Z,44.19
2022-10-07T14:08:42.087Z,44.25
2022-10-07T14:13:49.288Z,44.83
2022-10-07T14:18:56.581Z,44.50
2022-10-07T14:24:03.695Z,44.37
2022-10-07T14:29:10.902Z,44.19
2022-10-07T14:34:18.234Z,43.95
2022-10-07T14:39:25.448Z,43.98
2022-10-07T14:44:32.630Z,44.09
2022-10-07T14:49:39.874Z,43.95
2022-10-07T14:54:47.126Z,44.00
2022-10-07T14:59:54.324Z,43.97
2022-10-07T15:05:01.703Z,43.70
2022-10-07T15:10:08.782Z,44.42
2022-10-07T15:15:16.082Z,44.30
2022-10-07T15:20:23.305Z,44.46
2022-10-07T15:25:30.487Z,44.52
2022-10-07T15:30:39.563Z,44.25
2022-10-07T15:35:44.997Z,43.98
2022-10-07T15:40:55.540Z,43.95
2022-10-07T15:46:02.953Z,43.83
2022-10-07T15:51:09.998Z,43.75
2022-10-07T15:56:17.190Z,43.68
2022-10-07T16:01:24.428Z,43.62
2022-10-07T16:06:31.608Z,43.97
2022-10-07T16:11:38.801Z,44.48
2022-10-07T16:16:46.022Z,44.68
2022-10-07T16:21:53.190Z,44.52
2022-10-07T16:27:00.397Z,44.56
2022-10-07T16:32:07.660Z,44.69
2022-10-07T16:37:15.074Z,44.76
2022-10-07T16:42:22.113Z,44.64
2022-10-07T16:47:29.265Z,44.35
2022-10-07T16:52:36.520Z,44.61
2022-10-07T16:57:44.153Z,44.21
2022-10-07T17:02:54.097Z,44.44
2022-10-07T17:08:01.343Z,44.57
2022-10-07T17:13:08.497Z,44.65
2022-10-07T17:18:15.641Z,44.40
2022-10-07T17:23:23.201Z,44.39
2022-10-07T17:28:30.424Z,44.17
2022-10-07T17:33:37.615Z,43.99
2022-10-07T17:38:44.824Z,44.03
2022-10-07T17:43:51.947Z,43.89
2022-10-07T17:48:59.174Z,43.81
2022-10-07T17:54:06.510Z,43.65
2022-10-07T17:59:13.545Z,43.38
2022-10-07T18:04:24.765Z,43.38
2022-10-07T18:09:28.104Z,43.39
2022-10-07T18:14:35.189Z,43.39
2022-10-07T18:19:42.511Z,43.38
2022-10-07T18:24:49.756Z,43.13
2022-10-07T18:29:56.899Z,43.25
2022-10-07T18:35:04.130Z,43.06
2022-10-07T18:40:11.345Z,42.98
2022-10-07T18:45:18.540Z,42.93
2022-10-07T18:50:28.119Z,42.93
2022-10-07T18:55:33.662Z,42.97
2022-10-07T19:00:41.344Z,43.01
2022-10-07T19:05:48.762Z,43.02
2022-10-07T19:10:56.402Z,42.95
2022-10-07T19:16:04.551Z,42.88
2022-10-07T19:21:11.613Z,42.76
2022-10-07T19:26:21.310Z,42.82
2022-10-07T19:31:26.126Z,42.93
2022-10-07T19:36:33.627Z,42.93
2022-10-07T19:41:41.263Z,42.76
2022-10-07T19:46:48.560Z,43.28
2022-10-07T19:51:56.067Z,43.15
2022-10-07T19:57:03.477Z,43.67
2022-10-07T20:02:10.728Z,43.59
2022-10-07T20:07:17.823Z,42.87
2022-10-07T20:12:25.066Z,42.76
2022-10-07T20:17:32.193Z,42.95
2022-10-07T20:22:39.399Z,42.98
2022-10-07T20:27:46.970Z,42.88
2022-10-07T20:32:53.874Z,43.17
2022-10-07T20:38:01.022Z,42.97
2022-10-07T20:43:08.239Z,43.03
2022-10-07T20:48:15.469Z,42.99
2022-10-07T20:53:22.671Z,42.97
2022-10-07T20:58:29.959Z,43.12
2022-10-07T21:03:37.125Z,42.91
2022-10-07T21:08:44.318Z,42.90
2022-10-07T21:13:51.565Z,42.75
2022-10-07T21:18:58.763Z,42.47
2022-10-07T21:24:05.952Z,42.89
2022-10-07T21:29:13.160Z,42.56
2022-10-07T21:34:20.431Z,42.21
2022-10-07T21:39:27.779Z,41.99
2022-10-07T21:44:34.997Z,41.71
2022-10-07T21:49:42.178Z,41.63
2022-10-07T21:54:49.339Z,41.53
2022-10-07T21:59:56.622Z,41.62
2022-10-07T22:05:03.801Z,41.64
2022-10-07T22:10:10.996Z,41.77
2022-10-07T22:15:18.226Z,41.51
2022-10-07T22:20:25.366Z,40.50
2022-10-07T22:25:32.555Z,40.94
2022-10-07T22:30:39.854Z,40.92
2022-10-07T22:35:46.989Z,40.94
2022-10-07T22:40:54.226Z,40.72
2022-10-07T22:46:01.529Z,40.76
2022-10-07T22:51:08.645Z,41.01
2022-10-07T22:56:15.902Z,41.05
2022-10-07T23:01:23.103Z,41.09
2022-10-07T23:06:30.384Z,41.22
2022-10-07T23:11:37.589Z,41.25
2022-10-07T23:16:44.841Z,41.29
2022-10-07T23:21:51.974Z,41.28
2022-10-07T23:26:59.139Z,41.36
2022-10-07T23:32:06.399Z,41.39
2022-10-07T23:37:14.433Z,41.38
2022-10-07T23:42:21.603Z,41.42
2022-10-07T23:47:28.834Z,41.40
2022-10-07T23:52:36.041Z,41.41
2022-10-07T23:57:43.225Z,41.44
